EGXP

RAF Scampton Airport

Scampton, United Kingdom
METAR EGXP 280050Z AUTO 06007KT 2000 // OVC001/// 13/13 Q1018
Observed Flight Rules
May-28 @ 00:50 UTC (31 minutes ago) Instrument Flight Rules
Wind Visibility Clouds
60° at 7 knots 1,996 meters
  • Overcast at 100' AGL
Temperatures Readings
Current 13°C / 55°F
Dewpoint 13°C / 55°F
Humidity 100%
Altimeter 30.06" Hg
Pressure 1018 hPa
Elevation 61
METAR EGXP 280050Z AUTO 06007KT 2000 // OVC001/// 13/13 Q1018
Observed Flight Rules
May-28 @ 00:50 UTC
(31 minutes ago)
LIFR
Wind Visibility
60° at 7 knots 1,996 meters
Clouds
  • Overcast at 100' AGL
Temperature Dewpoint
13°C / 55°F 13°C / 55°F
Humidity Altimeter Pressure
100% 30.06" Hg 1018 hPa